createdAt,value
2023-03-26T00:02:15.991Z,14.00
2023-03-26T00:04:46.592Z,8.02
2023-03-26T00:07:17.526Z,13.23
2023-03-26T00:09:47.492Z,21.15
2023-03-26T00:12:16.001Z,20.40
2023-03-26T00:14:45.329Z,13.95
2023-03-26T00:17:18.576Z,19.10
2023-03-26T00:19:47.306Z,18.00
2023-03-26T00:22:17.092Z,10.10
2023-03-26T00:24:49.489Z,13.95
2023-03-26T00:27:20.216Z,12.25
2023-03-26T00:29:49.255Z,18.98
2023-03-26T00:32:17.937Z,16.63
2023-03-26T00:34:46.987Z,16.30
2023-03-26T00:37:15.396Z,12.25
2023-03-26T00:39:49.253Z,15.93
2023-03-26T00:42:19.126Z,20.10
2023-03-26T00:44:54.895Z,16.23
2023-03-26T00:47:25.337Z,16.55
2023-03-26T00:49:53.772Z,17.05
2023-03-26T00:52:23.680Z,19.80
2023-03-26T00:54:55.834Z,16.83
2023-03-26T00:57:35.743Z,23.95
2023-03-26T01:00:16.128Z,20.60
2023-03-26T01:02:46.395Z,25.77
2023-03-26T01:05:42.738Z,18.55
2023-03-26T01:08:19.740Z,17.55
2023-03-26T01:10:51.046Z,22.80
2023-03-26T01:13:23.929Z,23.65
2023-03-26T01:15:53.211Z,14.93
2023-03-26T01:18:26.530Z,20.33
2023-03-26T01:20:58.638Z,18.48
2023-03-26T01:23:32.116Z,23.13
2023-03-26T01:26:04.540Z,18.55
2023-03-26T01:28:34.397Z,19.13
2023-03-26T01:31:06.312Z,21.92
2023-03-26T01:33:39.269Z,16.73
2023-03-26T01:36:11.280Z,19.75
2023-03-26T01:38:46.595Z,19.05
2023-03-26T01:41:19.442Z,18.73
2023-03-26T01:43:49.057Z,25.00
2023-03-26T01:46:19.264Z,17.55
2023-03-26T01:48:48.726Z,20.92
2023-03-26T01:51:28.027Z,26.88
2023-03-26T01:54:01.292Z,21.48
2023-03-26T01:56:33.584Z,17.58
2023-03-26T01:59:09.031Z,24.98
2023-03-26T02:01:46.295Z,19.13
2023-03-26T02:04:21.335Z,26.73
2023-03-26T02:06:53.198Z,21.73
2023-03-26T02:09:24.092Z,13.48
2023-03-26T02:11:56.499Z,18.85
2023-03-26T02:14:25.026Z,20.48
2023-03-26T02:16:53.915Z,29.52
2023-03-26T02:19:24.726Z,28.92
2023-03-26T02:21:53.473Z,28.23
2023-03-26T02:24:22.543Z,19.50
2023-03-26T02:26:58.255Z,21.35
2023-03-26T02:29:27.611Z,16.83
2023-03-26T02:31:56.564Z,18.65
2023-03-26T02:34:27.553Z,16.42
2023-03-26T02:36:57.257Z,18.33
2023-03-26T02:39:26.185Z,21.77
2023-03-26T02:42:00.708Z,21.95
2023-03-26T02:44:30.342Z,20.98
2023-03-26T02:47:01.871Z,15.57
2023-03-26T02:49:49.059Z,16.92
2023-03-26T02:52:25.425Z,25.83
2023-03-26T02:54:55.610Z,27.02
2023-03-26T02:57:27.292Z,21.38
2023-03-26T03:00:15.991Z,22.60
2023-03-26T03:02:52.884Z,16.45
2023-03-26T03:05:34.381Z,19.73
2023-03-26T03:08:28.248Z,16.42
2023-03-26T03:11:22.186Z,18.58
2023-03-26T03:13:53.828Z,10.93
2023-03-26T03:16:25.105Z,14.20
2023-03-26T03:18:58.314Z,17.55
2023-03-26T03:21:37.867Z,19.05
2023-03-26T03:24:07.568Z,22.02
2023-03-26T03:26:42.380Z,21.13
2023-03-26T03:29:24.447Z,22.88
2023-03-26T03:31:55.649Z,18.52
2023-03-26T03:34:50.938Z,20.17
2023-03-26T03:37:20.321Z,20.05
2023-03-26T03:39:53.500Z,20.85
2023-03-26T03:42:27.431Z,19.17
2023-03-26T03:45:00.034Z,21.40
2023-03-26T03:47:54.810Z,9.50
2023-03-26T03:50:39.259Z,19.48
2023-03-26T03:53:26.019Z,19.05
2023-03-26T03:55:58.577Z,12.07
2023-03-26T03:58:52.386Z,13.20
2023-03-26T04:01:31.960Z,14.88
2023-03-26T04:04:06.386Z,19.08
2023-03-26T04:07:04.245Z,15.35
2023-03-26T04:09:46.582Z,17.20
2023-03-26T04:12:20.760Z,13.80
2023-03-26T04:15:02.489Z,16.63
2023-03-26T04:17:32.643Z,16.77
2023-03-26T04:20:09.006Z,22.08
2023-03-26T04:22:42.666Z,18.67
2023-03-26T04:25:15.567Z,17.17
2023-03-26T04:28:01.622Z,13.35
2023-03-26T04:31:03.911Z,13.73
2023-03-26T04:33:41.018Z,19.40
2023-03-26T04:36:18.567Z,12.48
2023-03-26T04:38:52.065Z,12.65
2023-03-26T04:41:29.059Z,18.25
2023-03-26T04:44:03.688Z,17.80
2023-03-26T04:46:57.510Z,15.40
2023-03-26T04:49:39.059Z,11.38
2023-03-26T04:52:12.160Z,14.63
2023-03-26T04:54:52.685Z,19.30
2023-03-26T04:57:25.530Z,12.15
2023-03-26T05:00:22.825Z,11.50
2023-03-26T05:02:59.823Z,16.13
2023-03-26T05:05:30.759Z,19.30
2023-03-26T05:08:03.535Z,16.70
2023-03-26T05:10:32.201Z,14.77
2023-03-26T05:13:05.572Z,12.70
2023-03-26T05:15:41.132Z,14.38
2023-03-26T05:18:24.854Z,11.25
2023-03-26T05:20:58.393Z,13.95
2023-03-26T05:23:28.278Z,11.50
2023-03-26T05:26:13.255Z,15.68
2023-03-26T05:28:42.147Z,22.27
2023-03-26T05:31:22.432Z,13.60
2023-03-26T05:33:55.115Z,14.38
2023-03-26T05:36:25.970Z,11.85
2023-03-26T05:39:06.150Z,19.27
2023-03-26T05:42:13.427Z,17.20
2023-03-26T05:45:00.148Z,24.50
2023-03-26T05:47:33.370Z,13.75
2023-03-26T05:50:02.060Z,15.02
2023-03-26T05:52:32.228Z,18.38
2023-03-26T05:55:22.163Z,19.73
2023-03-26T05:58:13.218Z,12.93
2023-03-26T06:01:00.367Z,16.02
2023-03-26T06:03:39.269Z,13.23
2023-03-26T06:06:16.638Z,10.88
2023-03-26T06:09:01.709Z,16.08
2023-03-26T06:11:31.181Z,22.42
2023-03-26T06:13:59.776Z,12.23
2023-03-26T06:16:28.689Z,15.93
2023-03-26T06:19:20.520Z,14.10
2023-03-26T06:21:52.230Z,15.32
2023-03-26T06:24:28.488Z,15.75
2023-03-26T06:27:15.418Z,14.85
2023-03-26T06:30:01.548Z,15.73
2023-03-26T06:32:46.807Z,13.65
2023-03-26T06:35:20.782Z,11.63
2023-03-26T06:37:49.249Z,11.68
2023-03-26T06:40:19.568Z,15.30
2023-03-26T06:43:11.078Z,17.60
2023-03-26T06:45:52.778Z,15.05
2023-03-26T06:48:43.376Z,13.25
2023-03-26T06:51:30.706Z,13.55
2023-03-26T06:54:22.637Z,17.33
2023-03-26T06:57:09.041Z,19.85
2023-03-26T06:59:55.001Z,15.23
2023-03-26T07:02:42.284Z,10.98
2023-03-26T07:05:29.444Z,12.05
2023-03-26T07:08:33.675Z,17.80
2023-03-26T07:11:22.508Z,18.52
2023-03-26T07:14:13.571Z,12.25
2023-03-26T07:17:08.518Z,12.65
2023-03-26T07:19:52.725Z,14.18
2023-03-26T07:22:25.684Z,17.25
2023-03-26T07:25:14.895Z,15.73
2023-03-26T07:28:13.080Z,16.88
2023-03-26T07:31:27.084Z,7.85
2023-03-26T07:34:36.075Z,12.10
2023-03-26T07:37:37.852Z,16.13
2023-03-26T07:40:25.687Z,19.38
2023-03-26T07:43:42.677Z,11.50
2023-03-26T07:46:39.342Z,13.00
2023-03-26T07:49:24.767Z,16.60
2023-03-26T07:52:15.971Z,14.45
2023-03-26T07:55:02.232Z,12.90
2023-03-26T07:58:00.825Z,17.17
2023-03-26T08:00:56.944Z,16.50
2023-03-26T08:03:36.968Z,14.35
2023-03-26T08:06:29.955Z,8.43
2023-03-26T08:09:13.712Z,11.50
2023-03-26T08:11:49.650Z,13.13
2023-03-26T08:14:24.985Z,11.40
2023-03-26T08:16:56.474Z,11.20
2023-03-26T08:19:35.050Z,12.52
2023-03-26T08:22:07.833Z,12.95
2023-03-26T08:24:43.478Z,10.15
2023-03-26T08:27:21.419Z,10.40
2023-03-26T08:29:54.968Z,12.05
2023-03-26T08:32:28.999Z,8.02
2023-03-26T08:35:01.474Z,12.95
2023-03-26T08:37:29.914Z,11.63
2023-03-26T08:39:58.582Z,11.43
2023-03-26T08:42:39.627Z,22.30
2023-03-26T08:45:19.097Z,19.30
2023-03-26T08:48:14.210Z,24.60
2023-03-26T08:50:57.799Z,24.13
2023-03-26T08:53:36.787Z,14.48
2023-03-26T08:56:17.060Z,16.48
2023-03-26T08:59:21.435Z,16.02
2023-03-26T09:02:14.083Z,20.80
2023-03-26T09:05:00.523Z,13.27
2023-03-26T09:07:46.478Z,11.23
2023-03-26T09:10:32.351Z,13.45
2023-03-26T09:13:20.983Z,19.13
2023-03-26T09:16:11.050Z,14.70
2023-03-26T09:18:57.698Z,15.60
2023-03-26T09:21:51.756Z,16.73
2023-03-26T09:24:33.581Z,22.85
2023-03-26T09:27:07.960Z,14.82
2023-03-26T09:29:52.877Z,12.35
2023-03-26T09:32:44.826Z,17.52
2023-03-26T09:35:15.812Z,19.33
2023-03-26T09:37:57.174Z,22.83
2023-03-26T09:40:36.690Z,11.20
2023-03-26T09:43:19.544Z,9.98
2023-03-26T09:45:54.633Z,7.22
2023-03-26T09:48:32.171Z,10.27
2023-03-26T09:51:09.340Z,8.95
2023-03-26T09:53:58.240Z,7.75
2023-03-26T09:56:34.004Z,11.93
2023-03-26T09:59:20.496Z,7.85
2023-03-26T10:01:53.721Z,12.73
2023-03-26T10:04:42.316Z,8.45
2023-03-26T10:07:14.335Z,10.98
2023-03-26T10:09:52.290Z,13.48
2023-03-26T10:12:28.867Z,12.48
2023-03-26T10:15:05.051Z,17.25
2023-03-26T10:17:40.161Z,11.82
2023-03-26T10:20:21.688Z,11.48
2023-03-26T10:22:54.769Z,11.35
2023-03-26T10:25:28.176Z,11.88
2023-03-26T10:28:06.723Z,10.10
2023-03-26T10:30:45.176Z,10.63
2023-03-26T10:33:22.096Z,12.00
2023-03-26T10:35:58.218Z,13.60
2023-03-26T10:38:41.478Z,13.20
2023-03-26T10:41:13.749Z,13.80
2023-03-26T10:44:01.159Z,14.68
2023-03-26T10:46:43.249Z,8.32
2023-03-26T10:49:26.663Z,13.43
2023-03-26T10:51:57.076Z,6.47
2023-03-26T10:54:35.912Z,11.82
2023-03-26T10:57:08.967Z,14.25
2023-03-26T10:59:39.316Z,12.30
2023-03-26T11:02:29.299Z,14.02
2023-03-26T11:05:05.059Z,6.32
2023-03-26T11:07:36.881Z,13.85
2023-03-26T11:10:09.046Z,10.57
2023-03-26T11:12:42.639Z,11.90
2023-03-26T11:15:27.676Z,19.35
2023-03-26T11:18:03.491Z,8.73
2023-03-26T11:20:34.889Z,17.35
2023-03-26T11:23:10.180Z,11.43
2023-03-26T11:25:49.090Z,10.80
2023-03-26T11:28:24.719Z,12.10
2023-03-26T11:30:57.566Z,10.43
2023-03-26T11:33:32.761Z,12.88
2023-03-26T11:36:08.830Z,13.60
2023-03-26T11:38:39.946Z,6.88
2023-03-26T11:41:13.991Z,5.07
2023-03-26T11:44:05.450Z,11.75
2023-03-26T11:46:43.040Z,12.43
2023-03-26T11:49:13.164Z,14.77
2023-03-26T11:51:43.239Z,12.40
2023-03-26T11:54:15.107Z,8.63
2023-03-26T11:57:05.805Z,10.95
2023-03-26T11:59:53.273Z,9.70
2023-03-26T12:02:29.497Z,8.02
2023-03-26T12:05:11.617Z,7.55
2023-03-26T12:07:46.622Z,11.90
2023-03-26T12:10:26.283Z,9.95
2023-03-26T12:12:58.948Z,11.27
2023-03-26T12:15:28.674Z,8.77
2023-03-26T12:18:01.884Z,11.57
2023-03-26T12:20:36.070Z,10.63
2023-03-26T12:23:09.009Z,9.82
2023-03-26T12:25:40.468Z,14.68
2023-03-26T12:28:20.987Z,15.68
2023-03-26T12:30:54.481Z,5.40
2023-03-26T12:33:27.206Z,9.93
2023-03-26T12:36:00.661Z,12.15
2023-03-26T12:38:35.831Z,7.15
2023-03-26T12:44:42.719Z,10.98
2023-03-26T12:44:55.338Z,12.18
2023-03-26T12:47:58.244Z,11.65
2023-03-26T12:49:39.705Z,5.40
2023-03-26T12:52:15.576Z,8.60
2023-03-26T12:54:48.480Z,13.18
2023-03-26T12:57:24.037Z,8.27
2023-03-26T13:00:01.597Z,12.63
2023-03-26T13:02:44.041Z,11.15
2023-03-26T13:05:21.809Z,5.93
2023-03-26T13:08:01.831Z,9.02
2023-03-26T13:10:54.694Z,9.90
2023-03-26T13:13:35.788Z,12.45
2023-03-26T13:16:06.907Z,6.07
2023-03-26T13:18:44.669Z,14.77
2023-03-26T13:21:17.813Z,9.38
2023-03-26T13:23:54.264Z,8.65
2023-03-26T13:26:31.478Z,10.48
2023-03-26T13:29:06.053Z,8.05
2023-03-26T13:31:35.992Z,7.13
2023-03-26T13:34:13.786Z,8.48
2023-03-26T13:36:50.578Z,7.07
2023-03-26T13:39:24.997Z,8.57
2023-03-26T13:42:04.657Z,6.80
2023-03-26T13:44:40.181Z,8.15
2023-03-26T13:47:15.553Z,3.22
2023-03-26T13:49:49.536Z,7.13
2023-03-26T13:52:22.929Z,8.20
2023-03-26T13:54:53.633Z,6.95
2023-03-26T13:57:25.568Z,8.93
2023-03-26T13:59:58.260Z,5.80
2023-03-26T14:02:30.835Z,5.55
2023-03-26T14:05:02.485Z,10.07
2023-03-26T14:07:34.596Z,4.05
2023-03-26T14:10:06.854Z,8.63
2023-03-26T14:12:40.078Z,5.20
2023-03-26T14:15:12.837Z,4.35
2023-03-26T14:17:43.017Z,4.93
2023-03-26T14:20:25.794Z,7.20
2023-03-26T14:23:03.835Z,7.30
2023-03-26T14:25:41.044Z,6.35
2023-03-26T14:28:17.881Z,3.85
2023-03-26T14:30:57.441Z,3.78
2023-03-26T14:33:50.503Z,8.10
2023-03-26T14:36:24.578Z,7.28
2023-03-26T14:39:12.074Z,8.13
2023-03-26T14:41:47.922Z,3.90
2023-03-26T14:44:27.996Z,1.98
2023-03-26T14:47:06.415Z,5.65
2023-03-26T14:49:53.579Z,9.43
2023-03-26T14:52:28.284Z,5.32
2023-03-26T14:55:00.321Z,6.20
2023-03-26T14:57:41.347Z,7.53
2023-03-26T15:00:21.209Z,7.60
2023-03-26T15:03:09.124Z,5.65
2023-03-26T15:06:03.601Z,8.63
2023-03-26T15:09:05.240Z,4.20
2023-03-26T15:11:36.206Z,8.40
2023-03-26T15:14:14.687Z,4.32
2023-03-26T15:17:01.195Z,4.25
2023-03-26T15:19:47.659Z,5.93
2023-03-26T15:22:31.032Z,7.10
2023-03-26T15:25:20.568Z,3.90
2023-03-26T15:28:18.983Z,16.33
2023-03-26T15:31:10.996Z,7.53
2023-03-26T15:33:55.008Z,10.43
2023-03-26T15:36:41.212Z,7.15
2023-03-26T15:39:27.694Z,4.35
2023-03-26T15:42:04.058Z,10.35
2023-03-26T15:44:54.168Z,2.78
2023-03-26T15:47:43.082Z,14.70
2023-03-26T15:50:24.807Z,4.18
2023-03-26T15:52:56.134Z,6.53
2023-03-26T15:55:28.900Z,9.05
2023-03-26T15:58:01.593Z,4.40
2023-03-26T16:00:33.331Z,5.10
2023-03-26T16:03:16.708Z,9.10
2023-03-26T16:05:48.967Z,6.15
2023-03-26T16:08:26.164Z,6.32
2023-03-26T16:10:57.227Z,3.42
2023-03-26T16:13:32.111Z,4.95
2023-03-26T16:16:16.167Z,3.97
2023-03-26T16:18:49.354Z,8.70
2023-03-26T16:21:30.890Z,8.40
2023-03-26T16:24:13.604Z,6.82
2023-03-26T16:26:51.245Z,6.28
2023-03-26T16:29:22.478Z,4.50
2023-03-26T16:32:01.714Z,4.70
2023-03-26T16:34:40.567Z,8.18
2023-03-26T16:37:37.929Z,3.97
2023-03-26T16:40:25.300Z,6.63
2023-03-26T16:42:56.750Z,4.07
2023-03-26T16:45:29.545Z,5.65
2023-03-26T16:48:03.032Z,4.80
2023-03-26T16:50:46.212Z,8.57
2023-03-26T16:53:24.659Z,6.15
2023-03-26T16:55:59.687Z,3.40
2023-03-26T16:58:32.872Z,3.83
2023-03-26T17:01:16.172Z,4.53
2023-03-26T17:03:53.292Z,8.68
2023-03-26T17:06:48.954Z,5.40
2023-03-26T17:09:27.188Z,4.68
2023-03-26T17:12:00.398Z,6.40
2023-03-26T17:14:33.663Z,7.63
2023-03-26T17:17:10.041Z,3.08
2023-03-26T17:19:45.878Z,4.22
2023-03-26T17:22:19.502Z,1.52
2023-03-26T17:24:59.977Z,4.93
2023-03-26T17:27:53.751Z,4.47
2023-03-26T17:30:33.259Z,4.90
2023-03-26T17:33:11.181Z,2.55
2023-03-26T17:35:45.572Z,11.20
2023-03-26T17:38:45.215Z,2.95
2023-03-26T17:41:18.070Z,7.07
2023-03-26T17:43:47.288Z,2.80
2023-03-26T17:46:37.793Z,5.05
2023-03-26T17:49:11.735Z,1.60
2023-03-26T17:51:46.158Z,2.92
2023-03-26T17:54:18.389Z,3.00
2023-03-26T17:56:48.756Z,5.10
2023-03-26T17:59:23.341Z,3.55
2023-03-26T18:01:55.438Z,5.53
2023-03-26T18:04:30.867Z,4.22
2023-03-26T18:07:12.055Z,3.88
2023-03-26T18:09:49.364Z,5.40
2023-03-26T18:12:34.812Z,2.63
2023-03-26T18:15:13.252Z,6.70
2023-03-26T18:17:43.294Z,4.25
2023-03-26T18:20:23.524Z,9.32
2023-03-26T18:22:54.726Z,5.93
2023-03-26T18:25:26.009Z,10.93
2023-03-26T18:27:55.008Z,8.95
2023-03-26T18:30:26.271Z,10.20
2023-03-26T18:33:00.203Z,4.57
2023-03-26T18:35:30.071Z,5.15
2023-03-26T18:38:00.229Z,6.60
2023-03-26T18:40:34.544Z,4.30
2023-03-26T18:43:03.162Z,5.00
2023-03-26T18:45:34.565Z,4.68
2023-03-26T18:48:05.086Z,4.95
2023-03-26T18:50:38.394Z,5.13
2023-03-26T18:53:08.531Z,2.67
2023-03-26T18:55:42.045Z,8.60
2023-03-26T18:58:24.027Z,2.78
2023-03-26T19:00:54.930Z,5.32
2023-03-26T19:03:25.061Z,3.38
2023-03-26T19:05:54.150Z,2.90
2023-03-26T19:08:25.733Z,9.50
2023-03-26T19:10:55.225Z,11.48
2023-03-26T19:13:24.084Z,7.88
2023-03-26T19:15:55.666Z,4.78
2023-03-26T19:18:25.614Z,8.00
2023-03-26T19:20:58.907Z,5.57
2023-03-26T19:23:33.315Z,5.30
2023-03-26T19:26:04.224Z,1.33
2023-03-26T19:28:36.034Z,4.68
2023-03-26T19:31:11.155Z,2.75
2023-03-26T19:33:42.256Z,10.40
2023-03-26T19:36:21.154Z,6.60
2023-03-26T19:38:51.612Z,5.72
2023-03-26T19:41:22.752Z,7.18
2023-03-26T19:43:53.831Z,10.07
2023-03-26T19:46:26.384Z,6.25
2023-03-26T19:49:00.015Z,7.60
2023-03-26T19:51:33.347Z,6.28
2023-03-26T19:54:07.836Z,6.30
2023-03-26T19:56:40.808Z,6.03
2023-03-26T19:59:09.713Z,9.85
2023-03-26T20:01:40.186Z,6.65
2023-03-26T20:04:14.565Z,3.47
2023-03-26T20:06:49.188Z,5.72
2023-03-26T20:09:17.822Z,4.13
2023-03-26T20:11:47.047Z,9.43
2023-03-26T20:14:20.053Z,2.88
2023-03-26T20:16:50.240Z,10.57
2023-03-26T20:19:19.276Z,3.35
2023-03-26T20:21:52.732Z,3.42
2023-03-26T20:24:24.743Z,6.18
2023-03-26T20:26:55.706Z,4.10
2023-03-26T20:29:24.144Z,1.98
2023-03-26T20:31:54.059Z,1.85
2023-03-26T20:34:26.349Z,7.97
2023-03-26T20:36:56.104Z,5.60
2023-03-26T20:39:31.606Z,6.75
2023-03-26T20:42:00.123Z,5.60
2023-03-26T20:44:28.667Z,3.70
2023-03-26T20:47:00.562Z,7.10
2023-03-26T20:49:29.910Z,4.60
2023-03-26T20:52:00.677Z,4.13
2023-03-26T20:54:29.632Z,7.00
2023-03-26T20:56:58.211Z,9.65
2023-03-26T20:59:32.613Z,2.47
2023-03-26T21:02:04.929Z,7.20
2023-03-26T21:04:33.733Z,4.38
2023-03-26T21:07:15.044Z,4.13
2023-03-26T21:09:46.901Z,6.03
2023-03-26T21:12:23.444Z,4.18
2023-03-26T21:14:55.940Z,10.52
2023-03-26T21:17:27.319Z,14.32
2023-03-26T21:19:56.196Z,4.60
2023-03-26T21:22:30.588Z,7.65
2023-03-26T21:25:03.224Z,10.70
2023-03-26T21:27:36.071Z,8.65
2023-03-26T21:30:04.885Z,5.75
2023-03-26T21:32:35.407Z,5.10
2023-03-26T21:35:06.281Z,6.88
2023-03-26T21:37:39.230Z,7.32
2023-03-26T21:40:14.435Z,6.60
2023-03-26T21:42:43.355Z,3.45
2023-03-26T21:45:14.566Z,11.50
2023-03-26T21:47:45.148Z,8.77
2023-03-26T21:50:17.205Z,5.13
2023-03-26T21:52:48.496Z,10.30
2023-03-26T21:55:17.898Z,14.57
2023-03-26T21:58:04.657Z,4.55
2023-03-26T22:00:43.638Z,6.15
2023-03-26T22:03:19.207Z,5.60
2023-03-26T22:05:51.630Z,5.80
2023-03-26T22:08:23.884Z,6.18
2023-03-26T22:10:52.438Z,7.20
2023-03-26T22:13:21.276Z,8.07
2023-03-26T22:15:50.135Z,5.78
2023-03-26T22:18:29.962Z,4.10
2023-03-26T22:20:59.238Z,4.35
2023-03-26T22:23:36.439Z,1.98
2023-03-26T22:26:07.913Z,5.90
2023-03-26T22:28:36.543Z,11.82
2023-03-26T22:31:15.877Z,3.10
2023-03-26T22:33:52.425Z,3.85
2023-03-26T22:36:22.692Z,4.15
2023-03-26T22:38:55.353Z,5.60
2023-03-26T22:41:23.854Z,4.78
2023-03-26T22:43:53.118Z,5.10
2023-03-26T22:46:24.443Z,3.63
2023-03-26T22:48:54.770Z,8.82
2023-03-26T22:51:25.725Z,4.72
2023-03-26T22:53:58.707Z,6.93
2023-03-26T22:56:27.531Z,6.68
2023-03-26T22:58:56.208Z,8.20
2023-03-26T23:01:26.228Z,6.90
2023-03-26T23:03:58.945Z,10.65
2023-03-26T23:06:27.555Z,6.15
2023-03-26T23:08:56.987Z,2.90
2023-03-26T23:11:25.648Z,2.72
2023-03-26T23:13:56.550Z,5.07
2023-03-26T23:16:25.021Z,4.72
2023-03-26T23:18:53.578Z,3.03
2023-03-26T23:21:23.895Z,3.78
2023-03-26T23:23:54.806Z,1.98
2023-03-26T23:26:24.170Z,4.30
2023-03-26T23:28:52.653Z,4.78
2023-03-26T23:31:21.110Z,4.50
2023-03-26T23:33:50.418Z,5.95
2023-03-26T23:36:20.246Z,3.55
2023-03-26T23:38:50.205Z,2.00
2023-03-26T23:41:21.535Z,3.20
2023-03-26T23:43:55.555Z,3.55
2023-03-26T23:46:25.177Z,2.08
2023-03-26T23:48:55.081Z,3.67
2023-03-26T23:51:26.229Z,3.85
2023-03-26T23:53:56.613Z,2.80
2023-03-26T23:56:29.861Z,2.88
2023-03-26T23:58:59.189Z,4.68
